Time;durP1;ratioP1;P1;durP2;ratioP2;P2;SDS_P1;SDS_P2;PMS_P1;PMS_P2;Temp;Humidity;BMP_temperature;BMP_pressure;BME280_temperature;BME280_humidity;BME280_pressure;Samples;Min_cycle;Max_cycle;Signal;HPM_P1;HPM_P2
2023/12/12 00:00:54;;;;;;;;;19.00;17.33;;;;;13.69;77.94;100476.88;5035933;28;45626;-82
2023/12/12 00:03:20;;;;;;;;;15.67;14.67;;;;;13.35;77.91;100412.16;5036528;28;45347;-81
2023/12/12 00:05:45;;;;;;;;;21.33;18.00;;;;;13.66;78.22;100453.19;5029138;28;46090;-83
2023/12/12 00:08:10;;;;;;;;;16.00;16.00;;;;;13.64;78.27;100439.16;5036012;28;45502;-81
2023/12/12 00:10:37;;;;;;;;;21.00;18.67;;;;;13.75;77.81;100466.50;5033344;28;45463;-83
2023/12/12 00:13:02;;;;;;;;;21.67;19.00;;;;;13.60;78.57;100445.81;5034909;28;45421;-81
2023/12/12 00:15:28;;;;;;;;;16.33;14.33;;;;;13.67;78.49;100464.69;5034080;28;45474;-82
2023/12/12 00:17:53;;;;;;;;;18.67;13.33;;;;;13.77;79.03;100475.19;5039348;28;45647;-82
2023/12/12 00:20:19;;;;;;;;;17.00;15.67;;;;;13.77;78.73;100475.19;5048976;28;45458;-81
2023/12/12 00:22:44;;;;;;;;;15.00;13.67;;;;;13.77;78.92;100475.19;5048781;28;45474;-82
2023/12/12 00:25:09;;;;;;;;;20.33;18.00;;;;;13.46;79.08;100409.16;5056089;28;48179;-81
2023/12/12 00:27:34;;;;;;;;;21.00;16.33;;;;;13.79;79.41;100454.47;5049051;28;49738;-81
2023/12/12 00:30:00;;;;;;;;;15.33;13.00;;;;;13.80;79.28;100450.78;5048651;28;45249;-81
2023/12/12 00:32:25;;;;;;;;;17.00;15.67;;;;;13.81;79.24;100453.28;5036195;28;45624;-80
2023/12/12 00:34:51;;;;;;;;;17.33;15.33;;;;;13.83;79.15;100451.28;5034356;28;45422;-81
2023/12/12 00:37:16;;;;;;;;;16.00;16.00;;;;;13.67;79.13;100422.78;5034703;28;45714;-83
2023/12/12 00:39:41;;;;;;;;;18.00;16.00;;;;;13.60;79.26;100400.41;5034784;28;45643;-81
2023/12/12 00:42:07;;;;;;;;;19.33;17.33;;;;;13.79;79.02;100431.25;5033733;28;45380;-83
2023/12/12 00:44:37;;;;;;;;;22.00;16.33;;;;;13.78;78.97;100418.06;5027463;28;45694;-81
2023/12/12 00:47:02;;;;;;;;;16.67;14.67;;;;;13.76;79.03;100404.03;5060969;28;45356;-80
2023/12/12 00:49:28;;;;;;;;;16.67;14.33;;;;;13.87;79.14;100419.72;5054547;28;45314;-82
2023/12/12 00:51:53;;;;;;;;;20.00;15.00;;;;;13.94;79.17;100424.19;5039982;28;45481;-81
2023/12/12 00:54:18;;;;;;;;;16.67;14.00;;;;;13.97;78.95;100423.00;5038570;28;45438;-79
2023/12/12 00:56:46;;;;;;;;;20.00;18.33;;;;;13.77;78.89;100377.16;5017973;28;45758;-80
2023/12/12 00:59:12;;;;;;;;;19.33;17.00;;;;;13.98;78.87;100413.97;5034936;28;45777;-80
2023/12/12 01:01:37;;;;;;;;;11.33;9.67;;;;;13.75;78.77;100370.31;5036401;28;45280;-78
2023/12/12 01:04:02;;;;;;;;;8.00;7.67;;;;;14.03;78.98;100416.97;5035628;28;46290;-78
2023/12/12 01:06:28;;;;;;;;;13.33;13.33;;;;;13.96;78.56;100397.28;5035439;28;45401;-78
2023/12/12 01:08:53;;;;;;;;;15.33;11.00;;;;;14.05;78.75;100409.63;5015601;28;46429;-80
2023/12/12 01:11:19;;;;;;;;;14.00;11.33;;;;;14.07;78.76;100423.63;5034461;28;45736;-76
2023/12/12 01:13:45;;;;;;;;;16.00;13.67;;;;;14.07;78.82;100412.09;5033018;28;45551;-81
2023/12/12 01:16:11;;;;;;;;;10.67;10.67;;;;;14.07;78.98;100410.25;5033615;28;45320;-76
2023/12/12 01:18:36;;;;;;;;;14.67;14.67;;;;;14.08;78.98;100403.91;5044941;28;45336;-76
2023/12/12 01:21:02;;;;;;;;;17.67;15.33;;;;;14.03;78.60;100394.75;5050422;28;45368;-74
2023/12/12 01:23:45;;;;;;;;;14.00;13.33;;;;;13.91;78.88;100364.91;5053469;28;46364;-76
2023/12/12 01:26:11;;;;;;;;;13.33;13.33;;;;;14.03;79.27;100379.56;5051413;28;45296;-78
2023/12/12 01:28:36;;;;;;;;;14.33;13.33;;;;;14.04;79.17;100375.88;5049863;28;45532;-75
2023/12/12 01:31:01;;;;;;;;;15.33;12.00;;;;;13.88;79.07;100351.91;5035828;28;45423;-76
2023/12/12 01:33:26;;;;;;;;;12.00;12.00;;;;;13.78;78.86;100337.91;5050390;28;45791;-75
2023/12/12 01:35:52;;;;;;;;;19.33;16.67;;;;;13.89;79.03;100348.22;5050524;28;45357;-78
2023/12/12 01:38:17;;;;;;;;;15.67;13.67;;;;;14.03;79.17;100368.88;5052655;28;45125;-76
2023/12/12 01:40:43;;;;;;;;;16.67;15.33;;;;;13.38;79.04;100268.47;5051640;28;45252;-75
2023/12/12 01:43:08;;;;;;;;;11.67;11.67;;;;;14.11;79.25;100374.16;5050796;28;45566;-74
2023/12/12 01:45:34;;;;;;;;;15.33;12.00;;;;;14.13;79.57;100382.81;5050869;28;45018;-77
2023/12/12 01:47:59;;;;;;;;;17.00;13.00;;;;;14.11;79.43;100381.34;5054619;28;45146;-78
2023/12/12 01:50:25;;;;;;;;;16.00;11.33;;;;;14.00;79.09;100363.84;5055128;28;45104;-76
2023/12/12 01:52:50;;;;;;;;;18.67;14.00;;;;;14.17;79.58;100386.81;5054952;28;45488;-74
2023/12/12 01:55:15;;;;;;;;;14.67;11.67;;;;;14.17;79.40;100386.81;5054287;28;45154;-75
2023/12/12 01:57:42;;;;;;;;;13.33;10.67;;;;;14.07;79.14;100383.53;5037230;28;45643;-81
2023/12/12 02:00:08;;;;;;;;;16.00;13.67;;;;;14.09;79.36;100397.56;5035695;28;45454;-77
2023/12/12 02:02:33;;;;;;;;;10.33;10.00;;;;;14.11;79.38;100387.50;5037406;28;45962;-79
2023/12/12 02:04:58;;;;;;;;;16.00;12.67;;;;;14.07;79.38;100369.34;5036835;28;45731;-80
2023/12/12 02:07:26;;;;;;;;;14.33;13.33;;;;;13.96;79.77;100350.00;5035447;28;45467;-80
2023/12/12 02:09:52;;;;;;;;;16.33;12.67;;;;;13.76;79.71;100318.53;5029234;28;45764;-79
2023/12/12 02:12:17;;;;;;;;;17.67;10.33;;;;;13.84;79.83;100343.41;5016660;28;46770;-79
2023/12/12 02:14:43;;;;;;;;;13.33;12.00;;;;;13.88;80.34;100344.72;5022813;28;45343;-79
2023/12/12 02:17:09;;;;;;;;;15.33;13.33;;;;;13.78;80.24;100333.38;5034999;28;45597;-80
2023/12/12 02:19:34;;;;;;;;;14.33;13.33;;;;;13.88;80.14;100343.88;5035172;28;45557;-80
2023/12/12 02:21:59;;;;;;;;;11.00;11.00;;;;;13.98;80.17;100336.47;5036455;28;46767;-80
2023/12/12 02:24:25;;;;;;;;;12.33;10.33;;;;;13.99;80.07;100330.09;5037304;28;45491;-82
2023/12/12 02:26:51;;;;;;;;;11.33;9.00;;;;;14.06;80.07;100335.59;5036052;28;45772;-78
2023/12/12 02:29:17;;;;;;;;;12.00;9.00;;;;;14.08;79.86;100329.06;5037144;28;45473;-78
2023/12/12 02:31:42;;;;;;;;;11.67;11.33;;;;;14.08;80.08;100329.06;5037742;28;45998;-81
2023/12/12 02:34:07;;;;;;;;;9.67;9.00;;;;;14.02;80.13;100324.44;5037422;28;45291;-80
2023/12/12 02:36:33;;;;;;;;;7.33;7.33;;;;;14.06;80.02;100336.44;5042388;28;45378;-80
2023/12/12 02:38:58;;;;;;;;;7.00;6.33;;;;;14.05;79.89;100329.41;5058406;28;45458;-79
2023/12/12 02:41:23;;;;;;;;;12.00;11.00;;;;;14.07;79.98;100326.56;5036801;28;47189;-79
2023/12/12 02:43:49;;;;;;;;;8.67;7.67;;;;;14.07;79.88;100321.22;5036837;28;45524;-79
2023/12/12 02:46:14;;;;;;;;;8.33;6.33;;;;;14.06;79.86;100323.06;5033912;28;45546;-76
2023/12/12 02:48:40;;;;;;;;;6.33;6.33;;;;;14.04;79.67;100310.88;5039897;28;45512;-75
2023/12/12 02:51:05;;;;;;;;;10.00;9.00;;;;;14.06;79.75;100299.00;5038104;28;45510;-76
2023/12/12 02:53:30;;;;;;;;;8.00;6.33;;;;;13.89;79.55;100276.06;5038509;28;45432;-77
2023/12/12 02:55:56;;;;;;;;;10.67;9.67;;;;;13.90;79.86;100269.72;5035477;28;45786;-80
2023/12/12 02:58:21;;;;;;;;;10.33;9.00;;;;;13.99;79.97;100279.31;5034820;28;45619;-80
2023/12/12 03:00:46;;;;;;;;;12.67;8.00;;;;;13.97;79.52;100268.81;5040548;28;45489;-79
2023/12/12 03:03:12;;;;;;;;;5.67;5.67;;;;;13.94;80.06;100265.66;5053540;28;45446;-80
2023/12/12 03:05:37;;;;;;;;;12.67;12.67;;;;;13.63;80.19;100223.81;5056808;28;45332;-77
2023/12/12 03:08:02;;;;;;;;;14.33;10.00;;;;;13.86;80.43;100273.75;5053972;28;46317;-79
2023/12/12 03:10:28;;;;;;;;;12.00;10.00;;;;;13.79;80.90;100270.09;5054489;28;45255;-81
2023/12/12 03:12:53;;;;;;;;;12.33;10.67;;;;;13.65;81.36;100263.69;5052357;28;45794;-79
2023/12/12 03:15:18;;;;;;;;;11.00;10.67;;;;;13.37;81.18;100228.59;5053604;28;44962;-77
2023/12/12 03:17:44;;;;;;;;;15.67;13.33;;;;;13.52;81.42;100245.56;5052463;28;44945;-78
2023/12/12 03:20:09;;;;;;;;;10.67;8.00;;;;;13.64;81.71;100272.72;5050411;28;45628;-78
2023/12/12 03:22:35;;;;;;;;;8.33;7.67;;;;;13.60;81.80;100253.50;5051811;28;45455;-79
2023/12/12 03:25:01;;;;;;;;;11.00;7.33;;;;;13.64;81.42;100254.84;5051810;28;44959;-80
2023/12/12 03:27:26;;;;;;;;;8.67;8.00;;;;;13.70;81.22;100246.13;5070046;28;45178;-79
2023/12/12 03:29:51;;;;;;;;;7.67;6.67;;;;;13.72;81.22;100239.75;5034642;28;45654;-80
2023/12/12 03:32:17;;;;;;;;;4.67;4.67;;;;;13.74;80.97;100224.38;5038312;28;45390;-81
2023/12/12 03:34:42;;;;;;;;;6.00;6.00;;;;;13.77;81.09;100229.38;5039642;28;45329;-80
2023/12/12 03:37:08;;;;;;;;;6.00;5.67;;;;;13.74;81.07;100213.69;5042587;28;45570;-80
2023/12/12 03:39:35;;;;;;;;;3.67;3.67;;;;;13.60;80.84;100194.75;5045695;28;46435;-81
2023/12/12 03:42:00;;;;;;;;;2.67;2.67;;;;;13.50;80.73;100178.13;5043227;28;45272;-76
2023/12/12 03:44:26;;;;;;;;;3.33;2.00;;;;;13.76;81.05;100209.00;5040040;28;45386;-76
2023/12/12 03:46:51;;;;;;;;;1.00;1.00;;;;;13.70;80.96;100202.53;5036223;28;45521;-76
2023/12/12 03:49:16;;;;;;;;;2.67;2.67;;;;;13.54;80.81;100166.09;5032552;28;45545;-76
2023/12/12 03:51:42;;;;;;;;;1.00;1.00;;;;;13.68;81.01;100189.38;5036618;28;45487;-80
2023/12/12 03:54:09;;;;;;;;;3.00;2.00;;;;;13.66;81.30;100178.03;5048467;28;45420;-77
2023/12/12 03:56:35;;;;;;;;;3.33;3.33;;;;;13.56;81.51;100161.41;5047829;28;45873;-76
2023/12/12 03:59:00;;;;;;;;;5.00;4.00;;;;;13.68;81.92;100184.03;5037632;28;45889;-81
2023/12/12 04:01:25;;;;;;;;;3.00;3.00;;;;;13.69;81.89;100169.66;5036754;28;45383;-80
2023/12/12 04:03:51;;;;;;;;;5.00;5.00;;;;;13.67;81.49;100176.19;5035963;28;45532;-81
2023/12/12 04:06:16;;;;;;;;;6.67;5.00;;;;;13.64;81.70;100164.03;5035554;28;45487;-80
2023/12/12 04:08:42;;;;;;;;;7.33;6.33;;;;;13.67;81.62;100166.34;5033664;28;45669;-80
2023/12/12 04:11:07;;;;;;;;;8.00;6.67;;;;;13.75;81.32;100177.97;5035030;28;45321;-80
2023/12/12 04:13:33;;;;;;;;;5.67;5.67;;;;;13.23;81.60;100082.53;5036189;28;45462;-82
2023/12/12 04:15:58;;;;;;;;;4.33;4.00;;;;;13.76;81.55;100166.25;5034329;28;45229;-82
2023/12/12 04:18:24;;;;;;;;;5.00;4.67;;;;;13.67;81.62;100154.81;5034768;28;46296;-80
2023/12/12 04:20:49;;;;;;;;;8.25;7.00;;;;;13.75;82.18;100167.28;5031796;28;45434;-80
2023/12/12 04:23:14;;;;;;;;;8.00;8.00;;;;;13.79;81.76;100163.22;5034199;28;45669;-81
2023/12/12 04:25:40;;;;;;;;;10.00;5.67;;;;;13.75;81.67;100157.41;5028462;28;45587;-79
2023/12/12 04:28:07;;;;;;;;;5.67;5.67;;;;;13.80;81.46;100155.03;5027093;28;45987;-80
2023/12/12 04:30:32;;;;;;;;;6.00;6.00;;;;;13.81;81.73;100153.19;5036865;28;45516;-77
2023/12/12 04:32:57;;;;;;;;;9.00;7.33;;;;;13.57;81.81;100108.81;5031593;28;45548;-77
2023/12/12 04:35:23;;;;;;;;;29.67;27.67;;;;;13.58;82.16;100113.13;5031600;28;45826;-76
2023/12/12 04:37:48;;;;;;;;;31.33;30.33;;;;;13.57;82.36;100106.97;5033349;28;46072;-75
2023/12/12 04:40:14;;;;;;;;;28.67;25.00;;;;;13.89;82.25;100162.00;5033592;28;45382;-77
2023/12/12 04:42:39;;;;;;;;;33.00;30.00;;;;;13.72;82.09;100114.22;5034643;28;45434;-75
2023/12/12 04:45:05;;;;;;;;;40.67;32.33;;;;;13.98;81.84;100133.34;5020905;28;45534;-75
2023/12/12 04:47:31;;;;;;;;;49.00;38.33;;;;;13.96;81.98;100122.84;5033079;28;45859;-78
2023/12/12 04:49:56;;;;;;;;;55.33;44.00;;;;;14.05;81.79;100136.97;5032978;28;45486;-76
2023/12/12 04:52:22;;;;;;;;;62.33;49.33;;;;;14.08;81.82;100139.28;5012498;28;45745;-75
2023/12/12 04:54:47;;;;;;;;;59.33;47.67;;;;;14.13;81.99;100150.25;5031694;28;45658;-76
2023/12/12 04:57:12;;;;;;;;;55.67;45.67;;;;;14.08;81.49;100128.59;5029538;28;46710;-76
2023/12/12 04:59:38;;;;;;;;;45.33;37.00;;;;;14.16;81.59;100143.69;5032302;28;45319;-75
2023/12/12 05:02:03;;;;;;;;;55.00;43.33;;;;;14.18;81.76;100142.50;5040709;28;45637;-76
2023/12/12 05:04:29;;;;;;;;;56.00;43.00;;;;;13.72;81.62;100055.44;5050459;28;45350;-76
2023/12/12 05:06:54;;;;;;;;;15.33;10.67;;;;;14.10;81.55;100113.19;5035864;28;45799;-75
2023/12/12 05:09:20;;;;;;;;;20.67;15.33;;;;;13.77;81.94;100059.22;5034174;28;44974;-77
2023/12/12 05:11:45;;;;;;;;;16.67;14.67;;;;;14.08;81.51;100098.34;5059225;28;45210;-76
2023/12/12 05:14:11;;;;;;;;;17.67;14.67;;;;;14.17;81.44;100114.13;5050166;28;45128;-76
2023/12/12 05:16:36;;;;;;;;;9.00;8.33;;;;;13.44;81.55;99996.44;5050166;28;45152;-77
2023/12/12 05:19:02;;;;;;;;;6.67;6.67;;;;;14.22;81.58;100127.78;5050055;28;45212;-75
2023/12/12 05:21:28;;;;;;;;;9.33;7.33;;;;;14.21;81.87;100134.13;5053316;28;45167;-81
2023/12/12 05:23:53;;;;;;;;;6.00;6.00;;;;;14.19;82.14;100128.13;5052246;28;44873;-79
2023/12/12 05:26:19;;;;;;;;;7.33;5.67;;;;;14.13;81.92;100118.16;5053108;28;45998;-78
2023/12/12 05:28:45;;;;;;;;;5.00;5.00;;;;;13.77;81.94;100050.38;5054133;28;45243;-75
2023/12/12 05:31:10;;;;;;;;;6.00;6.00;;;;;14.15;81.83;100105.44;5056287;28;45157;-78
2023/12/12 05:33:36;;;;;;;;;8.67;6.00;;;;;14.19;82.14;100090.69;5070831;28;44886;-78
2023/12/12 05:36:01;;;;;;;;;7.33;7.33;;;;;14.22;81.99;100103.72;5071638;28;45353;-78
2023/12/12 05:38:26;;;;;;;;;8.33;7.33;;;;;13.92;82.20;100062.75;5055344;28;45123;-78
2023/12/12 05:40:52;;;;;;;;;6.67;5.00;;;;;13.77;82.24;100029.81;5054484;28;45267;-80
2023/12/12 05:43:17;;;;;;;;;5.75;5.75;;;;;13.99;82.46;100068.19;5054605;28;45147;-77
2023/12/12 05:45:42;;;;;;;;;7.00;6.33;;;;;14.20;82.20;100096.88;5055714;28;45875;-77
2023/12/12 05:48:08;;;;;;;;;8.67;5.00;;;;;14.22;82.08;100097.56;5055299;28;45358;-80
2023/12/12 05:50:33;;;;;;;;;5.67;5.67;;;;;13.64;82.08;100006.44;5056306;28;45471;-82
2023/12/12 05:52:59;;;;;;;;;7.67;5.00;;;;;13.57;81.93;99992.13;5019700;28;45546;-82
2023/12/12 05:55:24;;;;;;;;;5.00;4.00;;;;;14.18;81.86;100094.38;5037836;28;45480;-78
2023/12/12 05:57:50;;;;;;;;;9.67;7.67;;;;;14.22;81.89;100101.06;5036529;28;45595;-77
2023/12/12 06:00:15;;;;;;;;;9.33;7.33;;;;;14.23;82.06;100096.53;5043191;28;45481;-81
2023/12/12 06:02:41;;;;;;;;;6.25;6.25;;;;;14.22;81.86;100085.00;5044835;28;45288;-77
2023/12/12 06:05:07;;;;;;;;;6.33;3.67;;;;;14.21;82.00;100086.00;5039824;28;46145;-80
2023/12/12 06:07:37;;;;;;;;;9.33;7.33;;;;;14.20;82.05;100084.34;5033912;28;45453;-81
2023/12/12 06:10:04;;;;;;;;;8.00;6.67;;;;;14.20;81.86;100088.84;5039129;28;45461;-79
2023/12/12 06:12:30;;;;;;;;;9.33;8.33;;;;;14.22;81.80;100084.19;5033440;28;45381;-78
2023/12/12 06:14:55;;;;;;;;;7.25;4.00;;;;;13.62;81.89;99989.75;5017562;28;47593;-80
2023/12/12 06:17:22;;;;;;;;;7.00;7.00;;;;;14.21;81.66;100067.28;5042274;28;45293;-78
2023/12/12 06:19:47;;;;;;;;;5.00;5.00;;;;;14.30;81.81;100079.56;5038274;28;45407;-80
2023/12/12 06:22:13;;;;;;;;;6.67;6.67;;;;;14.24;81.61;100072.28;5021878;28;45463;-76
2023/12/12 06:24:38;;;;;;;;;11.33;9.00;;;;;14.31;81.58;100072.38;5031965;28;46971;-79
2023/12/12 06:27:04;;;;;;;;;6.00;6.00;;;;;14.21;81.64;100050.41;5042654;28;45343;-77
2023/12/12 06:29:29;;;;;;;;;8.33;6.33;;;;;14.29;81.79;100069.88;5046648;28;45418;-78
2023/12/12 06:31:55;;;;;;;;;8.00;6.33;;;;;14.25;81.87;100067.75;5047207;28;45285;-75
2023/12/12 06:34:20;;;;;;;;;8.33;5.33;;;;;14.25;82.02;100057.91;5047726;28;45561;-78
2023/12/12 06:36:46;;;;;;;;;7.33;7.33;;;;;14.12;82.17;100047.00;5038917;28;45599;-77
2023/12/12 06:39:11;;;;;;;;;8.67;8.67;;;;;14.29;81.87;100069.88;5036847;28;45470;-76
2023/12/12 06:41:37;;;;;;;;;6.67;4.67;;;;;14.29;81.64;100064.53;5036123;28;45279;-77
2023/12/12 06:44:02;;;;;;;;;4.67;4.67;;;;;14.38;81.70;100075.13;5035982;28;45511;-80
2023/12/12 06:46:28;;;;;;;;;4.33;4.33;;;;;14.16;81.36;100032.25;5037349;28;45362;-82
2023/12/12 06:48:54;;;;;;;;;5.00;5.00;;;;;14.27;81.42;100050.53;5036422;28;45459;-79
2023/12/12 06:51:19;;;;;;;;;6.00;5.00;;;;;14.31;81.52;100057.16;5029747;28;45423;-76
2023/12/12 06:53:44;;;;;;;;;7.33;5.33;;;;;14.37;81.53;100063.59;5042875;28;45534;-75
2023/12/12 06:56:10;;;;;;;;;5.00;3.33;;;;;14.28;81.72;100052.19;5034456;28;46207;-78
2023/12/12 06:58:35;;;;;;;;;6.67;4.67;;;;;14.10;81.74;100016.13;5051404;28;45244;-76
2023/12/12 07:01:01;;;;;;;;;5.50;4.00;;;;;14.20;81.66;100038.88;5039486;28;46315;-77
2023/12/12 07:03:26;;;;;;;;;4.25;4.25;;;;;13.91;81.83;99998.81;5034451;28;45619;-77
2023/12/12 07:05:52;;;;;;;;;10.67;6.00;;;;;14.32;82.25;100077.53;5038010;28;45567;-74
2023/12/12 07:08:18;;;;;;;;;5.67;5.00;;;;;14.24;82.33;100060.75;5035389;28;45577;-78
2023/12/12 07:10:45;;;;;;;;;4.33;4.33;;;;;14.32;82.75;100077.53;5040056;28;45523;-73
2023/12/12 07:13:10;;;;;;;;;12.00;7.33;;;;;14.36;82.17;100080.66;5041284;28;45507;-76
2023/12/12 07:15:36;;;;;;;;;6.67;5.67;;;;;14.20;82.05;100060.28;5036258;28;45424;-80
2023/12/12 07:18:01;;;;;;;;;8.67;7.33;;;;;13.50;82.09;99929.78;5042529;28;45291;-80
2023/12/12 07:20:26;;;;;;;;;6.67;6.67;;;;;13.91;81.83;99994.28;5039207;28;45457;-81
2023/12/12 07:22:53;;;;;;;;;9.67;5.67;;;;;14.11;81.46;100023.97;5043429;28;45632;-84
2023/12/12 07:25:20;;;;;;;;;5.00;4.00;;;;;13.72;81.41;99959.28;5028143;28;45108;-82
2023/12/12 07:27:46;;;;;;;;;5.33;5.33;;;;;14.52;81.49;100085.84;5050444;28;45374;-82
2023/12/12 07:30:12;;;;;;;;;7.33;7.33;;;;;14.28;81.25;100056.69;5056301;28;45205;-86
2023/12/12 07:32:37;;;;;;;;;8.00;8.00;;;;;14.26;81.27;100040.00;5051111;28;45255;-84
2023/12/12 07:35:03;;;;;;;;;7.67;6.67;;;;;14.54;81.15;100083.00;5044079;28;45351;-82
2023/12/12 07:37:28;;;;;;;;;4.67;4.67;;;;;14.52;81.20;100079.69;5041482;28;45440;-82
2023/12/12 07:39:54;;;;;;;;;5.00;4.33;;;;;14.27;81.30;100044.34;5038330;28;45408;-85
2023/12/12 07:42:23;;;;;;;;;3.00;3.00;;;;;14.55;81.14;100081.97;5038691;28;45833;-82
2023/12/12 07:44:49;;;;;;;;;5.00;4.00;;;;;14.22;80.78;100026.19;5041127;28;45383;-82
2023/12/12 07:47:14;;;;;;;;;4.75;4.75;;;;;13.73;80.63;99945.72;5023143;28;45364;-82
2023/12/12 07:49:40;;;;;;;;;3.33;3.33;;;;;13.40;80.33;99886.47;5041794;28;45263;-81
2023/12/12 07:52:06;;;;;;;;;2.25;2.25;;;;;14.51;80.78;100083.38;5044348;28;45631;-77
2023/12/12 07:54:32;;;;;;;;;4.00;4.00;;;;;14.54;80.24;100080.31;5048549;28;45229;-80
2023/12/12 07:56:57;;;;;;;;;2.00;2.00;;;;;14.38;80.42;100051.06;5048775;28;45664;-80
2023/12/12 07:59:22;;;;;;;;;2.75;2.00;;;;;14.55;80.35;100079.31;5035932;28;45550;-80
2023/12/12 08:01:48;;;;;;;;;2.00;2.00;;;;;14.38;80.25;100040.34;5036594;28;45540;-78
2023/12/12 08:04:13;;;;;;;;;1.00;1.00;;;;;14.55;80.22;100087.31;5036515;28;45435;-76
2023/12/12 08:06:38;;;;;;;;;1.25;1.25;;;;;14.24;80.31;100032.19;5037176;28;45541;-80
2023/12/12 08:09:05;;;;;;;;;3.00;3.00;;;;;14.42;80.07;100053.19;5037541;28;45291;-79
2023/12/12 08:11:30;;;;;;;;;2.33;2.33;;;;;14.57;80.38;100083.44;5036565;28;45601;-81
2023/12/12 08:13:55;;;;;;;;;1.75;1.00;;;;;14.35;79.91;100035.38;5038349;28;45912;-80
2023/12/12 08:16:22;;;;;;;;;2.75;1.00;;;;;14.04;79.86;99979.47;5020223;28;45320;-81
2023/12/12 08:18:48;;;;;;;;;3.00;2.00;;;;;14.51;80.03;100054.78;5044963;28;45455;-79
2023/12/12 08:21:14;;;;;;;;;1.50;1.00;;;;;14.50;79.97;100052.28;5048034;28;46137;-78
2023/12/12 08:23:41;;;;;;;;;0.50;0.50;;;;;13.90;79.70;99947.22;5036446;28;46069;-81
2023/12/12 08:26:07;;;;;;;;;2.25;2.25;;;;;14.59;79.94;100056.50;5042712;28;45314;-78
2023/12/12 08:28:33;;;;;;;;;1.00;1.00;;;;;12.70;79.50;99742.75;5041737;28;45540;-80
2023/12/12 08:30:58;;;;;;;;;1.50;1.00;;;;;14.63;79.72;100057.81;5040052;28;45450;-80
2023/12/12 08:33:23;;;;;;;;;1.75;1.00;;;;;14.65;79.43;100055.78;5037815;28;45514;-79
2023/12/12 08:35:49;;;;;;;;;2.00;2.00;;;;;14.31;79.11;100002.84;5037730;28;45532;-78
2023/12/12 08:38:14;;;;;;;;;1.50;0.75;;;;;14.67;79.49;100060.94;5036787;28;45546;-78
2023/12/12 08:40:39;;;;;;;;;1.75;1.75;;;;;14.68;79.34;100062.59;5024935;28;46190;-79
2023/12/12 08:43:05;;;;;;;;;0.00;0.00;;;;;14.55;79.05;100055.22;5044315;28;45541;-82
2023/12/12 08:45:30;;;;;;;;;5.25;1.00;;;;;14.54;79.46;100046.38;5055643;28;45217;-82
2023/12/12 08:47:56;;;;;;;;;1.00;1.00;;;;;14.65;79.23;100060.31;5037919;28;45741;-82
2023/12/12 08:50:21;;;;;;;;;2.00;1.00;;;;;14.34;79.13;100009.66;5058460;28;45197;-81
2023/12/12 08:52:47;;;;;;;;;1.00;1.00;;;;;14.76;78.98;100084.72;5047593;28;45771;-79
2023/12/12 08:55:13;;;;;;;;;12.00;9.67;;;;;14.47;79.19;100037.44;5040536;28;45607;-81
2023/12/12 08:57:39;;;;;;;;;2.00;2.00;;;;;14.70;78.92;100064.06;5037661;28;45495;-84
2023/12/12 09:00:12;;;;;;;;;3.33;2.33;;;;;14.84;79.19;100098.00;5037978;28;45513;-83
2023/12/12 09:02:39;;;;;;;;;0.50;0.50;;;;;14.89;78.97;100095.59;5045499;28;45056;-87
2023/12/12 09:05:06;;;;;;;;;1.00;1.00;;;;;14.97;78.76;100093.81;5049945;28;45436;-79
2023/12/12 09:07:33;;;;;;;;;0.50;0.50;;;;;15.01;78.23;100082.53;5044062;28;44800;-82
2023/12/12 09:09:59;;;;;;;;;2.00;2.00;;;;;14.44;78.11;99987.00;5044226;28;45286;-81
2023/12/12 09:12:24;;;;;;;;;1.00;1.00;;;;;15.03;77.54;100077.03;5044519;28;45316;-82
2023/12/12 09:14:49;;;;;;;;;1.00;1.00;;;;;14.86;76.91;100036.25;5019851;28;45519;-82
2023/12/12 09:17:15;;;;;;;;;0.00;0.00;;;;;15.17;76.89;100086.84;5038487;28;45339;-81
2023/12/12 09:19:40;;;;;;;;;0.25;0.25;;;;;15.19;76.90;100085.63;5038080;28;44997;-83
2023/12/12 09:22:06;;;;;;;;;0.00;0.00;;;;;15.18;76.81;100092.00;5051647;28;45233;-83
2023/12/12 09:24:33;;;;;;;;;0.25;0.00;;;;;14.71;76.83;100009.53;5040314;28;45576;-80
2023/12/12 09:26:59;;;;;;;;;0.75;0.00;;;;;15.20;76.87;100076.56;5026806;28;45472;-82
2023/12/12 09:29:24;;;;;;;;;0.25;0.25;;;;;15.22;77.03;100079.09;5056021;28;46824;-81
2023/12/12 09:31:50;;;;;;;;;3.00;0.00;;;;;13.86;76.62;99857.75;5055891;28;45399;-82
2023/12/12 09:34:15;;;;;;;;;2.25;1.00;;;;;15.23;76.65;100072.69;5029757;28;45040;-76
2023/12/12 09:36:40;;;;;;;;;0.00;0.00;;;;;14.84;76.83;100009.69;5035559;28;45335;-80
2023/12/12 09:39:07;;;;;;;;;1.50;1.50;;;;;14.58;76.90;99961.22;5036993;28;46018;-82
2023/12/12 09:41:32;;;;;;;;;2.00;2.00;;;;;14.93;77.25;100022.94;5035701;28;44762;-81
2023/12/12 09:44:00;;;;;;;;;2.50;2.00;;;;;15.02;77.12;100053.94;5035819;28;45460;-82
2023/12/12 09:46:27;;;;;;;;;2.25;2.25;;;;;15.16;77.19;100058.41;5035830;28;45324;-79
2023/12/12 09:48:55;;;;;;;;;2.00;1.00;;;;;15.23;77.33;100078.06;5034784;28;46606;-80
2023/12/12 09:51:21;;;;;;;;;1.00;1.00;;;;;15.14;77.21;100053.22;5038491;28;45647;-80
2023/12/12 09:53:47;;;;;;;;;0.25;0.25;;;;;15.22;77.69;100060.34;5030776;28;45530;-79
2023/12/12 09:56:17;;;;;;;;;0.00;0.00;;;;;15.21;77.54;100061.31;5055668;28;45370;-81
2023/12/12 09:58:45;;;;;;;;;1.00;1.00;;;;;14.34;77.49;99914.22;5042563;28;45349;-78
2023/12/12 10:01:12;;;;;;;;;1.25;0.25;;;;;14.97;76.99;100014.34;5030009;28;45279;-79
2023/12/12 10:03:38;;;;;;;;;1.25;1.25;;;;;15.01;77.23;100025.50;5057103;28;44757;-79
2023/12/12 10:06:08;;;;;;;;;0.50;0.50;;;;;15.30;76.96;100068.22;5045895;28;45331;-81
2023/12/12 10:08:34;;;;;;;;;2.25;2.00;;;;;14.84;76.90;99993.63;5041150;28;45492;-82
2023/12/12 10:10:59;;;;;;;;;0.25;0.25;;;;;14.97;76.55;100008.97;5041866;28;45430;-80
2023/12/12 10:13:25;;;;;;;;;1.00;1.00;;;;;15.23;76.36;100037.88;5043274;28;45472;-80
2023/12/12 10:15:51;;;;;;;;;1.00;1.00;;;;;15.37;76.02;100047.69;5049551;28;45220;-82
2023/12/12 10:18:16;;;;;;;;;0.00;0.00;;;;;15.52;75.80;100056.47;5042236;28;45313;-81
2023/12/12 10:20:43;;;;;;;;;0.50;0.00;;;;;15.32;74.91;100017.16;5041443;28;45226;-80
2023/12/12 10:23:08;;;;;;;;;4.00;2.75;;;;;15.17;74.58;99987.75;5040294;28;45518;-80
2023/12/12 10:25:36;;;;;;;;;1.75;0.50;;;;;14.75;74.35;99906.47;5046513;28;45514;-77
2023/12/12 10:28:01;;;;;;;;;6.00;5.00;;;;;14.20;73.48;99814.31;5038161;28;46301;-80
2023/12/12 10:30:27;;;;;;;;;0.25;0.25;;;;;15.21;73.76;99968.44;5039201;28;45419;-80
2023/12/12 10:32:54;;;;;;;;;1.25;1.25;;;;;15.40;73.73;99990.22;5038595;28;45657;-79
2023/12/12 10:35:23;;;;;;;;;0.50;0.50;;;;;15.24;72.54;99940.47;5039768;28;45446;-82
2023/12/12 10:37:50;;;;;;;;;0.25;0.25;;;;;15.81;72.51;100038.59;5038577;28;45748;-80
2023/12/12 10:40:16;;;;;;;;;0.00;0.00;;;;;15.85;71.98;100029.16;5039178;28;45287;-81
2023/12/12 10:42:42;;;;;;;;;0.00;0.00;;;;;15.58;71.78;99990.56;5018981;28;45603;-80
2023/12/12 10:45:12;;;;;;;;;1.25;1.00;;;;;15.77;71.88;100022.09;5020494;28;45657;-81
2023/12/12 10:47:53;;;;;;;;;1.00;0.00;;;;;15.87;71.34;100031.66;5040141;28;45669;-79
2023/12/12 10:50:19;;;;;;;;;1.75;0.00;;;;;15.90;71.17;100024.03;5057157;28;45572;-81
2023/12/12 10:52:46;;;;;;;;;0.00;0.00;;;;;14.58;71.41;99827.47;5057619;28;45339;-81
2023/12/12 10:55:13;;;;;;;;;2.00;0.00;;;;;15.90;71.16;100034.75;5020230;28;45344;-80
2023/12/12 10:57:42;;;;;;;;;0.50;0.50;;;;;15.87;70.87;100039.69;5022149;28;46362;-81
2023/12/12 11:00:11;;;;;;;;;1.00;1.00;;;;;15.86;70.84;100035.34;5045075;28;45508;-80
2023/12/12 11:02:41;;;;;;;;;0.00;0.00;;;;;15.58;71.12;99974.50;5041595;28;45500;-80
2023/12/12 11:05:10;;;;;;;;;0.00;0.00;;;;;15.82;71.10;100021.53;5045556;28;45560;-81
2023/12/12 11:07:36;;;;;;;;;1.00;1.00;;;;;15.59;70.83;99978.03;5042147;28;45403;-82
2023/12/12 11:10:05;;;;;;;;;1.25;1.25;;;;;15.81;71.08;100014.47;5049475;28;45390;-82
2023/12/12 11:12:33;;;;;;;;;0.33;0.33;;;;;15.79;71.52;100013.84;5048351;28;45449;-81
2023/12/12 11:14:59;;;;;;;;;1.00;1.00;;;;;15.12;70.97;99910.69;5049684;28;45202;-81